createdAt,value
2019-06-01T00:01:50.270Z,100817.00
2019-06-01T00:06:54.308Z,100817.00
2019-06-01T00:11:58.457Z,100822.89
2019-06-01T00:17:02.509Z,100820.19
2019-06-01T00:22:06.694Z,100820.19
2019-06-01T00:27:10.778Z,100818.09
2019-06-01T00:32:14.793Z,100805.16
2019-06-01T00:37:18.857Z,100811.42
2019-06-01T00:42:22.888Z,100812.39
2019-06-01T00:47:27.044Z,100807.48
2019-06-01T00:52:31.056Z,100814.34
2019-06-01T00:57:35.322Z,100807.59
2019-06-01T01:02:39.334Z,100807.59
2019-06-01T01:07:44.507Z,100813.37
2019-06-01T01:13:10.291Z,100808.66
2019-06-01T01:18:14.298Z,100807.80
2019-06-01T01:23:18.334Z,100807.80
2019-06-01T01:28:24.002Z,100820.05
2019-06-01T01:33:28.234Z,100818.70
2019-06-01T01:38:32.263Z,100816.61
2019-06-01T01:43:36.301Z,100819.30
2019-06-01T01:48:40.341Z,100816.20
2019-06-01T01:53:44.387Z,100826.14
2019-06-01T01:58:48.501Z,100826.14
2019-06-01T02:03:53.667Z,100817.17
2019-06-01T02:08:59.365Z,100817.17
2019-06-01T02:14:03.625Z,100817.17
2019-06-01T02:19:07.871Z,100808.33
2019-06-01T02:24:11.878Z,100813.84
2019-06-01T02:29:16.102Z,100808.39
2019-06-01T02:34:20.343Z,100801.09
2019-06-01T02:39:24.485Z,100802.92
2019-06-01T02:44:29.030Z,100802.92
2019-06-01T02:49:33.217Z,100804.65
2019-06-01T02:54:37.467Z,100800.66
2019-06-01T02:59:41.717Z,100800.66
2019-06-01T03:04:46.069Z,100799.01
2019-06-01T03:09:50.655Z,100796.08
2019-06-01T03:14:58.306Z,100799.83
2019-06-01T03:20:06.298Z,100799.83
2019-06-01T03:25:12.252Z,100804.42
2019-06-01T03:30:20.465Z,100797.97
2019-06-01T03:35:24.718Z,100799.58
2019-06-01T03:40:28.994Z,100794.47
2019-06-01T03:45:33.272Z,100794.47
2019-06-01T03:50:37.459Z,100800.98
2019-06-01T03:55:41.583Z,100800.98
2019-06-01T04:00:45.797Z,100799.81
2019-06-01T04:05:49.951Z,100799.20
2019-06-01T04:10:55.365Z,100802.28
2019-06-01T04:15:59.595Z,100807.98
2019-06-01T04:21:04.229Z,100804.67
2019-06-01T04:26:08.482Z,100809.58
2019-06-01T04:31:12.903Z,100811.72
2019-06-01T04:36:17.046Z,100814.19
2019-06-01T04:41:21.267Z,100812.83
2019-06-01T04:46:25.571Z,100821.23
2019-06-01T04:51:29.885Z,100831.92
2019-06-01T04:56:34.133Z,100823.70
2019-06-01T05:01:38.512Z,100823.70
2019-06-01T05:06:42.549Z,100827.84
2019-06-01T05:11:46.816Z,100835.58
2019-06-01T05:16:50.985Z,100839.83
2019-06-01T05:21:55.184Z,100848.52
2019-06-01T05:26:59.411Z,100853.55
2019-06-01T05:32:03.587Z,100829.10
2019-06-01T05:37:08.522Z,100844.40
2019-06-01T05:42:12.730Z,100845.86
2019-06-01T05:47:18.319Z,100849.63
2019-06-01T05:52:23.051Z,100847.78
2019-06-01T05:57:27.246Z,100851.09
2019-06-01T06:02:31.300Z,100849.85
2019-06-01T06:07:35.543Z,100848.02
2019-06-01T06:12:39.674Z,100847.27
2019-06-01T06:17:43.795Z,100844.94
2019-06-01T06:22:48.046Z,100842.31
2019-06-01T06:27:52.088Z,100849.19
2019-06-01T06:32:56.269Z,100847.46
2019-06-01T06:38:00.401Z,100854.33
2019-06-01T06:43:18.609Z,100847.20
2019-06-01T06:48:10.469Z,100849.01
2019-06-01T06:53:25.520Z,100850.77
2019-06-01T06:58:21.020Z,100844.30
2019-06-01T07:03:25.611Z,100841.03
2019-06-01T07:08:29.686Z,100839.64
2019-06-01T07:13:33.718Z,100843.95
2019-06-01T07:18:37.735Z,100844.26
2019-06-01T07:23:41.830Z,100837.03
2019-06-01T07:28:45.824Z,100825.69
2019-06-01T07:33:49.854Z,100825.69
2019-06-01T07:38:53.848Z,100847.44
2019-06-01T07:43:57.879Z,100846.55
2019-06-01T07:49:01.887Z,100842.98
2019-06-01T07:54:06.516Z,100839.68
2019-06-01T07:59:10.602Z,100844.92
2019-06-01T08:04:14.893Z,100847.13
2019-06-01T08:09:18.967Z,100840.93
2019-06-01T08:14:23.035Z,100840.93
2019-06-01T08:19:28.201Z,100837.27
2019-06-01T08:24:32.467Z,100836.48
2019-06-01T08:29:36.539Z,100836.48
2019-06-01T08:34:40.620Z,100841.61
2019-06-01T08:39:44.685Z,100829.73
2019-06-01T08:44:48.691Z,100828.39
2019-06-01T08:49:52.690Z,100827.71
2019-06-01T08:54:56.703Z,100820.48
2019-06-01T09:00:00.818Z,100811.14
2019-06-01T11:00:37.144Z,100752.70
2019-06-01T11:05:26.086Z,100754.42
2019-06-01T11:10:30.152Z,100745.66
2019-06-01T11:15:35.099Z,100733.30
2019-06-01T11:20:39.421Z,100735.25
2019-06-01T11:25:43.800Z,100716.54
2019-06-01T11:30:47.785Z,100731.45
2019-06-01T11:35:51.858Z,100731.45
2019-06-01T11:40:55.850Z,100704.13
2019-06-01T11:46:00.138Z,100711.67
2019-06-01T11:51:04.773Z,100708.97
2019-06-01T11:56:08.865Z,100704.72
2019-06-01T12:01:12.908Z,100697.26
2019-06-01T12:06:16.913Z,100691.60
2019-06-01T12:11:20.940Z,100679.94
2019-06-01T12:16:25.525Z,100672.38
2019-06-01T12:21:29.538Z,100672.48
2019-06-01T12:26:33.613Z,100669.38
2019-06-01T12:31:37.729Z,100669.38
2019-06-01T12:36:42.714Z,100647.31
2019-06-01T12:41:47.798Z,100655.25
2019-06-01T12:46:53.050Z,100655.25
2019-06-01T12:51:57.304Z,100660.20
2019-06-01T12:57:01.474Z,100652.02
2019-06-01T13:02:05.573Z,100652.02
2019-06-01T13:07:10.097Z,100644.77
2019-06-01T13:12:14.368Z,100629.41
2019-06-01T14:10:51.270Z,100559.87
2019-06-01T14:15:55.682Z,100563.92
2019-06-01T14:20:59.683Z,100570.38
2019-06-01T14:26:03.896Z,100572.37
2019-06-01T14:31:07.937Z,100553.51
2019-06-01T14:36:12.043Z,100568.06
2019-06-01T14:41:16.132Z,100568.06
2019-06-01T14:46:20.223Z,100564.16
2019-06-01T14:51:24.248Z,100558.75
2019-06-01T14:56:28.286Z,100558.75
2019-06-01T15:01:33.302Z,100545.75
2019-06-01T15:06:37.467Z,100545.75
2019-06-01T15:11:41.562Z,100544.52
2019-06-01T15:16:45.699Z,100535.92
2019-06-01T15:21:50.036Z,100532.09
2019-06-01T15:26:54.654Z,100533.33
2019-06-01T15:32:00.164Z,100525.61
2019-06-01T15:37:04.407Z,100525.61
2019-06-01T15:42:08.526Z,100520.58
2019-06-01T15:47:12.649Z,100520.32
2019-06-01T15:52:16.679Z,100510.27
2019-06-01T15:57:20.768Z,100502.88
2019-06-01T16:02:24.791Z,100501.90
2019-06-01T16:07:28.871Z,100488.74
2019-06-01T16:12:33.015Z,100489.14
2019-06-01T16:17:37.109Z,100491.45
2019-06-01T16:22:41.234Z,100486.66
2019-06-01T16:27:45.253Z,100487.52
2019-06-01T16:32:49.364Z,100487.52
2019-06-01T16:37:54.854Z,100473.16
2019-06-01T16:43:01.465Z,100453.59
2019-06-01T16:48:06.607Z,100465.72
2019-06-01T16:53:10.791Z,100458.96
2019-06-01T16:58:14.889Z,100459.83
2019-06-01T17:03:18.909Z,100455.27
2019-06-01T17:08:23.034Z,100453.06
2019-06-01T17:13:27.114Z,100456.49
2019-06-01T17:18:31.224Z,100456.49
2019-06-01T17:23:35.241Z,100456.98
2019-06-01T17:28:39.322Z,100458.61
2019-06-01T17:33:43.520Z,100459.56
2019-06-01T17:38:47.717Z,100459.56
2019-06-01T17:43:51.830Z,100452.93
2019-06-01T17:48:56.064Z,100452.93
2019-06-01T17:54:02.230Z,100429.80
2019-06-01T17:59:06.022Z,100441.38
2019-06-01T18:04:10.145Z,100445.17
2019-06-01T18:09:14.260Z,100447.52
2019-06-01T18:14:18.811Z,100451.44
2019-06-01T18:19:22.914Z,100454.41
2019-06-01T18:24:26.980Z,100448.64
2019-06-01T18:29:30.981Z,100448.64
2019-06-01T18:34:35.147Z,100451.44
2019-06-01T18:39:39.232Z,100454.27
2019-06-01T18:44:43.371Z,100453.74
2019-06-01T18:49:47.464Z,100450.42
2019-06-01T18:54:51.498Z,100453.86
2019-06-01T18:59:55.597Z,100453.59
2019-06-01T19:04:59.830Z,100451.27
2019-06-01T19:10:05.247Z,100452.48
2019-06-01T19:15:23.595Z,100452.62
2019-06-01T19:20:17.140Z,100463.16
2019-06-01T19:25:21.558Z,100462.94
2019-06-01T19:30:40.150Z,100462.94
2019-06-01T19:35:44.636Z,100465.84
2019-06-01T19:40:48.734Z,100483.83
2019-06-01T19:45:52.811Z,100471.55
2019-06-01T19:50:56.819Z,100481.97
2019-06-01T19:56:00.891Z,100481.97
2019-06-01T20:01:05.158Z,100499.69
2019-06-01T20:06:10.578Z,100493.08
2019-06-01T20:11:15.088Z,100476.48
2019-06-01T20:16:20.150Z,100492.72
2019-06-01T20:21:24.559Z,100498.84
2019-06-01T20:26:40.364Z,100494.80
2019-06-01T20:31:34.441Z,100505.11
2019-06-01T20:36:38.463Z,100508.83
2019-06-01T20:41:42.491Z,100508.58
2019-06-01T20:46:46.516Z,100520.09
2019-06-01T20:51:50.543Z,100518.80
2019-06-01T20:56:54.727Z,100518.80
2019-06-01T21:01:58.837Z,100519.33
2019-06-01T21:07:02.853Z,100519.33
2019-06-01T21:12:06.959Z,100526.47
2019-06-01T21:17:10.981Z,100524.98
2019-06-01T21:22:14.990Z,100516.09
2019-06-01T21:27:19.019Z,100516.09
2019-06-01T21:32:23.652Z,100529.04
2019-06-01T21:37:27.728Z,100514.29
2019-06-01T21:42:31.758Z,100518.84
2019-06-01T21:47:35.853Z,100505.39
2019-06-01T21:52:39.851Z,100526.83
2019-06-01T21:57:43.868Z,100524.74
2019-06-01T22:02:47.947Z,100515.23
2019-06-01T22:07:52.053Z,100515.23
2019-06-01T22:12:56.296Z,100514.11
2019-06-01T22:18:00.743Z,100514.11
2019-06-01T22:23:04.931Z,100522.66
2019-06-01T22:28:08.951Z,100524.02
2019-06-01T22:33:13.031Z,100520.84
2019-06-01T22:38:17.049Z,100525.14
2019-06-01T22:43:37.088Z,100525.14
2019-06-01T22:48:26.953Z,100502.27
2019-06-01T22:53:32.368Z,100502.27
2019-06-01T22:58:36.564Z,100503.99
2019-06-01T23:03:40.705Z,100504.63
2019-06-01T23:08:44.735Z,100512.25
2019-06-01T23:13:53.432Z,100510.41
2019-06-01T23:18:54.627Z,100493.89
2019-06-01T23:23:58.740Z,100515.32
2019-06-01T23:29:02.995Z,100515.32
2019-06-01T23:34:07.242Z,100493.40
2019-06-01T23:39:11.252Z,100508.42
2019-06-01T23:44:15.355Z,100503.63
2019-06-01T23:49:19.367Z,100503.63
2019-06-01T23:54:23.617Z,100491.69
2019-06-01T23:59:29.168Z,100491.69
